• Join FlightAware (Why Join?)
  • Login
  • US Flag 
11:05PM EDT


 

Airport Tracker/Info


-or-


 

Live Flight TrackerFlight Track Log ✈ EGF4039 ✈ 10-May-2013 ✈ KALO - KORD

Flight Track Log - Related Links

Times and Time Zones

All times are in EDT time to prevent confusion due to time zone crossing. See the EGF4039 flight status page for this flight to view local times or setup timezone preferences in your user account.

Time Position Orientation Groundspeed Altitude Reporting Facility
EDT Latitude Longitude Course Direction KTS MPH feet Rate Location/Type
06:38PM 42.6244 -92.3908 97° East 226 260 5,900  Level Chicago Center
06:39PM 42.6128 -92.3064 101° East 227 261 8,300 2,340 Climbing Chicago Center
06:40PM 42.6003 -92.2178 101° East 234 269 10,800 2,160 Climbing Chicago Center
06:41PM 42.4836 -91.6861 97° East  Level FlightAware Approximate
06:41PM 42.5869 -92.1022 99° East 251 289 12,800  Level Chicago Center
06:42PM 42.4768 -91.5648 97° East  Level FlightAware Approximate
06:42PM 42.5722 -91.9889 100° East 293 337 14,000  Level Chicago Center
06:43PM 42.4653 -91.4440 97° East  Level FlightAware Approximate
06:43PM 42.5575 -91.8628 99° East 335 386 15,200  Level Chicago Center
06:44PM 42.5392 -91.7294 101° East 358 412 16,400 1,200 Climbing Chicago Center
06:45PM 42.5172 -91.5617 100° East 379 436 17,800 1,200 Climbing Chicago Center
06:46PM 42.5158 -91.4147 91° East 398 458 19,000 1,080 Climbing Chicago Center
06:47PM 42.5197 -91.2667 88° East 401 461 20,100 1,080 Climbing Chicago Center
06:48PM 42.5242 -91.1125 88° East 413 475 21,300 1,200 Climbing Chicago Center
06:49PM 42.5289 -90.9219 88° East 424 488 22,700 780 Climbing Chicago Center
06:50PM 42.5314 -90.7589 89° East 436 502 23,000 120 Climbing Chicago Center
06:51PM 42.5353 -90.5917 88° East 447 514 23,000  Level Chicago Center
06:52PM 42.5389 -90.4278 88° East 441 507 23,000  Level Chicago Center
06:53PM 42.5431 -90.2381 88° East 426 490 23,000  Level Chicago Center
06:54PM 42.5453 -90.0819 89° East 420 483 23,000 -180 Level Chicago Center
06:55PM 42.5469 -89.9097 89° East 417 480 22,700 -1,080 Descending Chicago Center
06:56PM 42.5483 -89.7508 89° East 420 483 20,800 -1,920 Descending Chicago Center
06:57PM 42.5514 -89.5867 88° East 434 499 18,800 -1,920 Descending Chicago Center
06:58PM 42.5525 -89.4239 89° East 435 501 16,900 -1,920 Descending Chicago Center
06:59PM 42.5539 -89.2803 89° East 393 452 14,900 -1,380 Descending Chicago Center
07:00PM 42.5572 -89.1283 88° East 350 403 14,100 -420 Descending Chicago Center
07:02PM 42.5256 -89.0003 109° East 363 418 14,100 -60 Level Chicago Center
07:03PM 42.4864 -88.8717 112° Southeast 371 427 14,000 -1,020 Descending Chicago Center
07:04PM 42.4486 -88.7450 112° Southeast 365 420 12,100 -1,800 Descending Chicago Center
07:05PM 42.4133 -88.6247 112° Southeast 350 403 10,400 -1,440 Descending Chicago Center
07:06PM 42.3753 -88.5033 113° Southeast 311 358 9,100 -1,080 Descending Chicago Center
07:07PM 42.3208 -88.4708 156° South 280 322 8,200 -540 Descending Chicago Center
07:08PM 42.2453 -88.4633 176° South 232 267 8,000 -120 Descending Chicago Center
07:09PM 42.1906 -88.4606 178° South 205 236 8,000  Level Chicago Center
07:10PM 42.1331 -88.4539 175° South 207 238 8,000 -300 Level Chicago Center
07:11PM 42.0756 -88.4475 175° South 208 239 7,400 -540 Descending Chicago Center
07:12PM 42.0194 -88.4422 176° South 205 236 7,000 -540 Descending Chicago Center
07:13PM 41.9797 -88.3989 141° Southeast 198 228 6,300 -900 Descending Chicago Center
07:14PM 41.9675 -88.3147 101° East 204 235 5,200 -660 Descending Chicago Center
07:15PM 41.9675 -88.2447 90° East 195 224 5,000 -480 Descending Chicago Center
07:16PM 41.9681 -88.1739 89° East 192 221 4,300 -900 Descending Chicago Center
07:17PM 41.9675 -88.1019 91° East 192 221 3,200 -1,080 Descending Chicago Center